createdAt,value
2019-06-26T00:03:25.638Z,98999.52
2019-06-26T00:08:30.981Z,98993.91
2019-06-26T00:13:36.363Z,98996.89
2019-06-26T00:18:44.072Z,98998.30
2019-06-26T00:23:49.572Z,99001.06
2019-06-26T00:28:55.159Z,99003.01
2019-06-26T00:34:00.539Z,99006.45
2019-06-26T00:39:07.805Z,99012.14
2019-06-26T00:44:13.449Z,99013.19
2019-06-26T00:49:18.958Z,99015.66
2019-06-26T00:54:24.309Z,99016.44
2019-06-26T00:59:29.691Z,99020.44
2019-06-26T01:04:38.158Z,99025.05
2019-06-26T01:09:43.539Z,99024.66
2019-06-26T01:14:48.974Z,99025.69
2019-06-26T01:19:54.206Z,99034.51
2019-06-26T01:25:00.505Z,99031.92
2019-06-26T01:30:07.640Z,99026.07
2019-06-26T01:35:13.834Z,99026.61
2019-06-26T01:40:19.139Z,99027.55
2019-06-26T01:45:24.441Z,99025.69
2019-06-26T01:50:29.663Z,99037.68
2019-06-26T01:55:35.157Z,99037.58
2019-06-26T02:00:44.333Z,99039.77
2019-06-26T02:05:49.761Z,99041.77
2019-06-26T02:10:55.222Z,99042.69
2019-06-26T02:16:00.717Z,99046.19
2019-06-26T02:21:06.144Z,99044.70
2019-06-26T02:26:11.543Z,99048.35
2019-06-26T02:31:16.890Z,99045.50
2019-06-26T02:36:22.165Z,99052.99
2019-06-26T02:41:27.553Z,99057.11
2019-06-26T02:46:32.794Z,99058.73
2019-06-26T02:51:38.442Z,99052.31
2019-06-26T02:56:43.832Z,99060.09
2019-06-26T03:01:49.185Z,99065.35
2019-06-26T03:06:54.409Z,99071.25
2019-06-26T03:12:00.247Z,99075.81
2019-06-26T03:17:05.616Z,99076.80
2019-06-26T03:22:11.055Z,99078.03
2019-06-26T03:27:16.381Z,99088.00
2019-06-26T03:32:21.792Z,99083.47
2019-06-26T03:37:27.254Z,99085.37
2019-06-26T03:42:32.957Z,99088.33
2019-06-26T03:47:38.347Z,99094.28
2019-06-26T03:52:43.700Z,99093.22
2019-06-26T03:57:48.995Z,99097.83
2019-06-26T04:02:54.452Z,99099.92
2019-06-26T04:07:59.873Z,99105.83
2019-06-26T04:13:06.208Z,99104.92
2019-06-26T04:18:11.908Z,99109.97
2019-06-26T04:23:17.492Z,99113.75
2019-06-26T04:28:22.955Z,99119.28
2019-06-26T04:33:28.176Z,99118.49
2019-06-26T04:38:33.449Z,99121.67
2019-06-26T04:43:38.822Z,99125.33
2019-06-26T04:48:44.162Z,99134.59
2019-06-26T04:53:49.571Z,99131.20
2019-06-26T04:58:54.792Z,99135.31
2019-06-26T05:04:00.500Z,99132.95
2019-06-26T05:09:07.768Z,99131.13
2019-06-26T05:14:13.200Z,99133.95
2019-06-26T05:19:18.824Z,99132.81
2019-06-26T05:24:24.417Z,99140.83
2019-06-26T05:29:29.903Z,99138.13
2019-06-26T05:34:35.192Z,99148.13
2019-06-26T05:39:40.444Z,99143.23
2019-06-26T05:44:46.759Z,99144.70
2019-06-26T05:49:52.160Z,99144.98
2019-06-26T05:54:57.614Z,99152.12
2019-06-26T06:00:03.030Z,99159.50
2019-06-26T06:05:08.958Z,99153.36
2019-06-26T06:10:15.562Z,99162.83
2019-06-26T06:15:20.901Z,99171.97
2019-06-26T06:20:35.753Z,99177.16
2019-06-26T06:25:40.981Z,99177.07
2019-06-26T06:30:46.221Z,99176.56
2019-06-26T06:35:52.812Z,99182.17
2019-06-26T06:40:58.352Z,99181.28
2019-06-26T06:46:03.746Z,99192.73
2019-06-26T06:51:09.135Z,99188.67
2019-06-26T06:56:16.424Z,99192.77
2019-06-26T07:01:21.729Z,99193.83
2019-06-26T07:06:27.218Z,99194.97
2019-06-26T07:11:32.539Z,99204.00
2019-06-26T07:16:38.202Z,99209.24
2019-06-26T07:21:43.543Z,99211.21
2019-06-26T07:26:49.878Z,99212.86
2019-06-26T07:31:55.567Z,99219.43
2019-06-26T07:37:00.823Z,99221.41
2019-06-26T07:42:06.543Z,99228.32
2019-06-26T07:47:22.499Z,99236.83
2019-06-26T07:52:19.090Z,99237.33
2019-06-26T07:57:24.531Z,99235.52
2019-06-26T08:02:30.042Z,99248.25
2019-06-26T08:07:35.776Z,99247.18
2019-06-26T08:12:41.556Z,99241.73
2019-06-26T08:17:59.754Z,99252.08
2019-06-26T08:22:54.161Z,99249.13
2019-06-26T08:27:59.572Z,99250.34
2019-06-26T08:33:05.037Z,99260.63
2019-06-26T08:38:15.356Z,99261.66
2019-06-26T08:43:17.544Z,99262.42
2019-06-26T08:48:38.845Z,99259.24
2019-06-26T08:53:31.750Z,99258.97
2019-06-26T08:58:37.265Z,99261.49
2019-06-26T09:03:42.698Z,99260.52
2019-06-26T09:08:49.269Z,99267.11
2019-06-26T09:13:54.531Z,99262.06
2019-06-26T09:18:59.901Z,99253.17
2019-06-26T09:24:05.353Z,99253.00
2019-06-26T09:29:10.898Z,99256.38
2019-06-26T09:34:16.362Z,99253.55
2019-06-26T09:39:21.626Z,99257.16
2019-06-26T09:44:26.995Z,99255.77
2019-06-26T09:49:32.508Z,99257.92
2019-06-26T09:54:37.837Z,99259.62
2019-06-26T09:59:46.823Z,99267.16
2019-06-26T10:04:52.141Z,99264.67
2019-06-26T10:09:57.491Z,99257.92
2019-06-26T10:15:02.954Z,99260.47
2019-06-26T10:20:09.321Z,99254.39
2019-06-26T10:25:14.753Z,99255.88
2019-06-26T10:30:20.365Z,99258.38
2019-06-26T10:35:25.745Z,99253.96
2019-06-26T10:40:31.190Z,99252.42
2019-06-26T10:45:36.572Z,99239.77
2019-06-26T10:50:49.809Z,99243.81
2019-06-26T10:55:49.245Z,99237.36
2019-06-26T11:00:54.626Z,99241.91
2019-06-26T11:06:02.567Z,99237.42
2019-06-26T11:11:07.977Z,99240.34
2019-06-26T11:16:14.526Z,99230.20
2019-06-26T11:21:20.821Z,99225.96
2019-06-26T11:26:26.150Z,99238.41
2019-06-26T11:31:31.492Z,99235.78
2019-06-26T11:36:37.023Z,99233.72
2019-06-26T11:41:42.719Z,99239.69
2019-06-26T11:46:48.341Z,99235.55
2019-06-26T11:51:54.067Z,99229.98
2019-06-26T11:57:01.183Z,99228.65
2019-06-26T12:02:08.287Z,99234.47
2019-06-26T12:07:13.994Z,99233.06
2019-06-26T12:12:19.577Z,99228.08
2019-06-26T12:17:24.843Z,99226.64
2019-06-26T12:22:30.089Z,99220.95
2019-06-26T12:27:35.631Z,99212.98
2019-06-26T12:32:42.554Z,99216.59
2019-06-26T12:37:48.512Z,99220.12
2019-06-26T12:42:55.705Z,99221.58
2019-06-26T12:48:00.809Z,99214.05
2019-06-26T12:53:06.234Z,99208.75
2019-06-26T12:58:15.026Z,99207.84
2019-06-26T13:03:18.997Z,99202.27
2019-06-26T13:08:24.299Z,99205.56
2019-06-26T13:13:30.511Z,99203.27
2019-06-26T13:18:36.190Z,99197.81
2019-06-26T13:23:41.495Z,99190.27
2019-06-26T13:28:47.123Z,99192.64
2019-06-26T13:33:52.872Z,99187.48
2019-06-26T13:38:58.280Z,99196.39
2019-06-26T13:44:03.985Z,99194.91
2019-06-26T13:49:09.372Z,99193.52
2019-06-26T13:54:14.896Z,99196.25
2019-06-26T13:59:22.328Z,99192.77
2019-06-26T14:04:27.541Z,99190.78
2019-06-26T14:09:33.502Z,99194.02
2019-06-26T14:14:56.206Z,99198.52
2019-06-26T14:19:46.876Z,99190.92
2019-06-26T14:24:54.216Z,99194.14
2019-06-26T14:29:59.436Z,99195.71
2019-06-26T14:35:05.162Z,99185.19
2019-06-26T14:40:10.947Z,99191.32
2019-06-26T14:45:16.484Z,99187.50
2019-06-26T14:50:23.017Z,99189.80
2019-06-26T14:55:28.390Z,99188.84
2019-06-26T15:00:33.994Z,99196.38
2019-06-26T15:05:40.593Z,99181.52
2019-06-26T15:10:46.015Z,99188.70
2019-06-26T15:15:54.640Z,99181.80
2019-06-26T15:20:58.644Z,99178.55
2019-06-26T15:26:04.361Z,99177.97
2019-06-26T15:31:10.141Z,99169.18
2019-06-26T15:36:15.503Z,99156.61
2019-06-26T15:41:21.091Z,99160.17
2019-06-26T15:46:30.532Z,99151.28
2019-06-26T15:51:36.959Z,99146.24
2019-06-26T15:56:42.305Z,99143.88
2019-06-26T16:01:47.754Z,99131.78
2019-06-26T16:06:53.092Z,99138.03
2019-06-26T16:11:59.064Z,99135.56
2019-06-26T16:17:09.605Z,99124.73
2019-06-26T16:22:31.203Z,99123.50
2019-06-26T16:27:23.174Z,99115.09
2019-06-26T16:32:28.546Z,99116.16
2019-06-26T16:37:33.893Z,99114.16
2019-06-26T16:42:39.599Z,99106.12
2019-06-26T16:47:45.733Z,99103.02
2019-06-26T16:52:51.453Z,99104.70
2019-06-26T16:57:56.794Z,99099.55
2019-06-26T17:03:02.094Z,99099.44
2019-06-26T17:08:07.532Z,99105.98
2019-06-26T17:13:12.948Z,99100.73
2019-06-26T17:18:18.631Z,99104.73
2019-06-26T17:23:24.371Z,99111.56
2019-06-26T17:28:29.648Z,99106.91
2019-06-26T17:33:35.044Z,99114.80
2019-06-26T17:38:40.415Z,99114.52
2019-06-26T17:43:46.990Z,99110.16
2019-06-26T17:48:52.349Z,99107.38
2019-06-26T17:53:57.799Z,99117.61
2019-06-26T17:59:03.205Z,99117.88
2019-06-26T18:04:08.492Z,99118.50
2019-06-26T18:09:13.896Z,99122.63
2019-06-26T18:14:19.206Z,99132.11
2019-06-26T18:19:24.949Z,99126.72
2019-06-26T18:24:30.687Z,99122.45
2019-06-26T18:29:36.429Z,99129.61
2019-06-26T18:34:41.968Z,99132.53
2019-06-26T18:39:47.320Z,99134.05
2019-06-26T18:44:52.739Z,99134.25
2019-06-26T18:50:02.175Z,99146.86
2019-06-26T18:55:07.818Z,99142.73
2019-06-26T19:00:15.806Z,99142.47
2019-06-26T19:05:21.197Z,99147.64
2019-06-26T19:10:26.625Z,99151.11
2019-06-26T19:15:31.971Z,99150.83
2019-06-26T19:20:37.324Z,99151.98
2019-06-26T19:25:42.659Z,99149.94
2019-06-26T19:30:48.438Z,99156.69
2019-06-26T19:35:54.007Z,99153.80
2019-06-26T19:40:59.323Z,99158.41
2019-06-26T19:46:04.845Z,99161.82
2019-06-26T19:51:10.478Z,99165.94
2019-06-26T19:56:20.081Z,99168.03
2019-06-26T20:01:24.047Z,99168.19
2019-06-26T20:06:29.512Z,99172.84
2019-06-26T20:11:37.376Z,99182.92
2019-06-26T20:16:43.600Z,99178.75
2019-06-26T20:21:49.863Z,99189.66
2019-06-26T20:26:55.415Z,99193.59
2019-06-26T20:32:01.108Z,99206.00
2019-06-26T20:37:06.432Z,99209.86
2019-06-26T20:42:11.992Z,99214.84
2019-06-26T20:47:17.412Z,99222.89
2019-06-26T20:52:22.859Z,99226.41
2019-06-26T20:57:28.218Z,99233.69
2019-06-26T21:02:33.965Z,99227.91
2019-06-26T21:07:42.670Z,99235.31
2019-06-26T21:12:48.083Z,99246.70
2019-06-26T21:17:54.751Z,99251.07
2019-06-26T21:23:00.033Z,99255.78
2019-06-26T21:28:06.522Z,99252.23
2019-06-26T21:33:12.018Z,99263.70
2019-06-26T21:38:21.779Z,99259.71
2019-06-26T21:43:27.175Z,99260.45
2019-06-26T21:48:32.523Z,99260.79
2019-06-26T21:53:37.909Z,99258.98
2019-06-26T21:59:01.606Z,99269.11
2019-06-26T22:04:25.973Z,99270.45
2019-06-26T22:09:33.405Z,99272.28
2019-06-26T22:14:40.756Z,99275.44
2019-06-26T22:19:46.168Z,99268.27
2019-06-26T22:24:51.771Z,99266.05
2019-06-26T22:29:57.270Z,99269.77
2019-06-26T22:35:03.368Z,99276.98
2019-06-26T22:40:08.845Z,99280.91
2019-06-26T22:45:14.616Z,99285.42
2019-06-26T22:50:19.912Z,99290.38
2019-06-26T22:55:25.246Z,99298.25
2019-06-26T23:00:30.614Z,99295.41
2019-06-26T23:05:35.883Z,99299.69
2019-06-26T23:10:41.225Z,99304.42
2019-06-26T23:15:46.638Z,99302.34
2019-06-26T23:20:51.973Z,99302.80
2019-06-26T23:25:57.475Z,99303.75
2019-06-26T23:31:02.979Z,99314.03
2019-06-26T23:36:08.386Z,99307.52
2019-06-26T23:41:13.680Z,99321.11
2019-06-26T23:46:19.313Z,99314.06
2019-06-26T23:51:24.645Z,99325.25
2019-06-26T23:56:40.040Z,99326.56
